Time;durP1;ratioP1;P1;durP2;ratioP2;P2;SDS_P1;SDS_P2;PMS_P1;PMS_P2;Temp;Humidity;BMP_temperature;BMP_pressure;BME280_temperature;BME280_humidity;BME280_pressure;Samples;Min_cycle;Max_cycle;Signal;HPM_P1;HPM_P2
2023/03/16 00:01:02;;;;;;;12.03;9.87;;;;;;;1.19;100.00;98488.84;5053222;28;20205;-74
2023/03/16 00:03:29;;;;;;;13.90;11.57;;;;;;;1.15;100.00;98490.13;5052860;28;20235;-74
2023/03/16 00:05:55;;;;;;;14.17;11.63;;;;;;;1.17;100.00;98484.75;5053347;28;20634;-74
2023/03/16 00:08:22;;;;;;;12.90;11.00;;;;;;;1.15;100.00;98495.34;5053213;28;20216;-74
2023/03/16 00:10:49;;;;;;;12.13;10.90;;;;;;;1.10;100.00;98483.69;5053326;28;20219;-74
2023/03/16 00:13:22;;;;;;;12.00;10.57;;;;;;;1.11;100.00;98485.31;5053558;28;20229;-74
2023/03/16 00:15:51;;;;;;;13.37;10.63;;;;;;;1.03;100.00;98482.66;5053046;28;20247;-74
2023/03/16 00:18:18;;;;;;;13.93;10.63;;;;;;;1.06;100.00;98487.56;5053119;28;20216;-74
2023/03/16 00:20:44;;;;;;;12.30;10.73;;;;;;;1.07;100.00;98484.81;5053095;28;20200;-74
2023/03/16 00:23:11;;;;;;;12.63;11.07;;;;;;;0.96;100.00;98492.06;5052592;28;20229;-74
2023/03/16 00:25:37;;;;;;;13.23;11.03;;;;;;;0.90;100.00;98490.84;5052733;28;20209;-74
2023/03/16 00:28:03;;;;;;;12.70;10.70;;;;;;;0.98;100.00;98488.31;5052912;28;20217;-74
2023/03/16 00:30:31;;;;;;;12.67;10.57;;;;;;;0.88;100.00;98481.50;5052587;28;20316;-74
2023/03/16 00:32:58;;;;;;;12.57;10.13;;;;;;;0.85;100.00;98481.81;5052523;28;20316;-74
2023/03/16 00:35:25;;;;;;;13.57;10.93;;;;;;;0.87;100.00;98487.72;5052797;28;20212;-74
2023/03/16 00:37:51;;;;;;;12.37;10.83;;;;;;;0.86;100.00;98486.88;5052588;28;20664;-74
2023/03/16 00:40:17;;;;;;;14.97;11.17;;;;;;;0.84;100.00;98486.22;5052571;28;20209;-74
2023/03/16 00:42:44;;;;;;;13.23;10.63;;;;;;;0.80;100.00;98489.28;5052939;28;20232;-74
2023/03/16 00:45:10;;;;;;;13.93;11.37;;;;;;;0.84;100.00;98486.22;5053006;28;20202;-74
2023/03/16 00:47:37;;;;;;;12.40;10.87;;;;;;;0.76;100.00;98485.31;5052994;28;20296;-74
2023/03/16 00:50:03;;;;;;;14.23;11.40;;;;;;;0.75;100.00;98487.09;5052992;28;20211;-74
2023/03/16 00:52:30;;;;;;;12.47;10.60;;;;;;;0.67;100.00;98483.56;5052577;28;20782;-74
2023/03/16 00:54:56;;;;;;;14.93;11.60;;;;;;;0.71;100.00;98484.94;5052693;28;20214;-74
2023/03/16 00:57:26;;;;;;;12.20;10.90;;;;;;;0.71;100.00;98477.88;5052947;28;20213;-74
2023/03/16 00:59:53;;;;;;;12.87;11.40;;;;;;;0.73;100.00;98478.59;5052950;28;20263;-74
2023/03/16 01:02:22;;;;;;;14.43;12.07;;;;;;;0.76;100.00;98478.25;5052768;28;20236;-74
2023/03/16 01:04:49;;;;;;;14.00;11.50;;;;;;;0.77;100.00;98486.94;5052752;28;20209;-74
2023/03/16 01:07:15;;;;;;;14.80;11.60;;;;;;;0.77;100.00;98479.09;5055190;28;20217;-74
2023/03/16 01:09:42;;;;;;;14.40;12.07;;;;;;;0.75;100.00;98484.47;5056131;28;20211;-74
2023/03/16 01:12:15;;;;;;;13.77;11.27;;;;;;;0.78;100.00;98473.72;5056323;28;20221;-74
2023/03/16 01:14:44;;;;;;;13.63;12.23;;;;;;;0.79;100.00;98482.38;5056404;28;20196;-74
2023/03/16 01:17:12;;;;;;;17.93;12.47;;;;;;;0.80;100.00;98481.44;5056163;28;20217;-74
2023/03/16 01:19:40;;;;;;;13.83;12.27;;;;;;;0.86;100.00;98475.59;5056444;28;20205;-74
2023/03/16 01:22:08;;;;;;;15.07;12.53;;;;;;;0.83;100.00;98470.66;5056078;28;20236;-74
2023/03/16 01:24:35;;;;;;;15.47;12.87;;;;;;;0.88;100.00;98474.47;5056198;28;20208;-74
2023/03/16 01:27:03;;;;;;;17.53;13.73;;;;;;;0.88;100.00;98476.25;5056145;28;20300;-74
2023/03/16 01:29:29;;;;;;;18.20;13.47;;;;;;;0.89;100.00;98473.50;5056119;28;20205;-74
2023/03/16 01:31:56;;;;;;;15.50;12.90;;;;;;;0.85;100.00;98473.97;5055958;28;20225;-74
2023/03/16 01:34:23;;;;;;;16.13;13.00;;;;;;;0.84;100.00;98464.44;5055609;28;20205;-74
2023/03/16 01:36:50;;;;;;;16.27;13.00;;;;;;;0.83;100.00;98458.41;5055924;28;20206;-74
2023/03/16 01:39:17;;;;;;;15.73;13.17;;;;;;;0.78;100.00;98457.19;5055616;28;20220;-74
2023/03/16 01:41:45;;;;;;;18.53;13.33;;;;;;;0.82;100.00;98462.00;5056039;28;20209;-74
2023/03/16 01:44:29;;;;;;;15.40;13.10;;;;;;;0.80;100.00;98465.72;5055717;28;20232;-74
2023/03/16 01:46:55;;;;;;;13.93;12.17;;;;;;;0.76;100.00;98459.94;5055482;28;20632;-74
2023/03/16 01:49:37;;;;;;;15.73;13.30;;;;;;;0.73;100.00;98457.66;5055420;28;20212;-74
2023/03/16 01:52:21;;;;;;;14.23;12.53;;;;;;;0.72;100.00;98465.63;5055595;28;20251;-74
2023/03/16 01:54:53;;;;;;;14.70;12.37;;;;;;;0.80;100.00;98460.50;5055277;28;20636;-74
2023/03/16 01:57:23;;;;;;;13.17;11.77;;;;;;;0.76;100.00;98461.75;5055585;28;20190;-74
2023/03/16 02:00:06;;;;;;;15.33;12.87;;;;;;;0.75;100.00;98449.63;5056316;28;20209;-74
2023/03/16 02:02:33;;;;;;;14.07;12.23;;;;;;;0.67;100.00;98452.19;5055332;28;20232;-74
2023/03/16 02:05:11;;;;;;;16.17;12.50;;;;;;;0.68;100.00;98452.03;5056210;28;20205;-74
2023/03/16 02:07:43;;;;;;;15.30;12.17;;;;;;;0.66;100.00;98459.19;5055387;28;20190;-74
2023/03/16 02:10:12;;;;;;;14.23;12.27;;;;;;;0.65;100.00;98451.50;5055047;28;20658;-74
2023/03/16 02:12:39;;;;;;;14.27;12.77;;;;;;;0.67;100.00;98452.19;5054789;28;20232;-74
2023/03/16 02:15:06;;;;;;;15.23;13.43;;;;;;;0.65;100.00;98451.50;5054906;28;20209;-74
2023/03/16 02:17:35;;;;;;;17.60;13.50;;;;;;;0.70;100.00;98438.78;5054226;28;20217;-74
2023/03/16 02:20:39;;;;;;;18.90;14.30;;;;;;;0.68;100.00;98438.97;5055046;28;20205;-74
2023/03/16 02:23:08;;;;;;;15.37;13.23;;;;;;;0.68;100.00;98431.09;5055145;28;20239;-74
2023/03/16 02:26:03;;;;;;;18.03;14.30;;;;;;;0.72;100.00;98434.25;5055027;28;20201;-74
2023/03/16 02:28:29;;;;;;;15.03;13.30;;;;;;;0.70;100.00;98441.41;5054982;28;20186;-74
2023/03/16 02:30:56;;;;;;;17.07;13.13;;;;;;;0.68;100.00;98435.50;5054901;28;20657;-74
2023/03/16 02:33:24;;;;;;;14.67;12.57;;;;;;;0.74;100.00;98440.13;5054496;28;20221;-74
2023/03/16 02:35:50;;;;;;;13.20;11.73;;;;;;;0.63;100.00;98440.38;5054455;28;20216;-74
2023/03/16 02:38:16;;;;;;;16.07;13.37;;;;;;;0.68;100.00;98436.34;5054767;28;20212;-74
2023/03/16 02:40:43;;;;;;;15.17;13.33;;;;;;;0.63;100.00;98429.91;5054732;28;20217;-74
2023/03/16 02:43:15;;;;;;;16.53;13.20;;;;;;;0.70;100.00;98438.78;5054577;28;20623;-74
2023/03/16 02:45:50;;;;;;;14.70;12.97;;;;;;;0.71;100.00;98424.75;5053538;28;20196;-74
2023/03/16 02:48:42;;;;;;;17.13;13.53;;;;;;;0.71;100.00;98427.38;5054596;28;20227;-74
2023/03/16 02:51:10;;;;;;;15.13;12.73;;;;;;;0.74;100.00;98424.44;5053371;28;20205;-74
2023/03/16 02:53:36;;;;;;;15.70;12.87;;;;;;;0.73;100.00;98417.56;5054441;28;20229;-74
2023/03/16 02:56:03;;;;;;;15.47;13.10;;;;;;;0.72;100.00;98421.16;5054262;28;20564;-74
2023/03/16 02:58:30;;;;;;;14.67;12.97;;;;;;;0.73;100.00;98423.63;5054197;28;20202;-74
2023/03/16 03:00:57;;;;;;;13.77;12.33;;;;;;;0.70;100.00;98423.09;5055006;28;20621;-74
2023/03/16 03:03:24;;;;;;;17.03;12.93;;;;;;;0.65;100.00;98415.69;5053793;28;20687;-74
2023/03/16 03:05:50;;;;;;;14.43;11.70;;;;;;;0.63;100.00;98412.38;5054157;28;20208;-74
2023/03/16 03:08:19;;;;;;;14.97;13.47;;;;;;;0.69;100.00;98416.22;5053765;28;20216;-74
2023/03/16 03:10:45;;;;;;;13.43;12.07;;;;;;;0.70;100.00;98412.63;5053821;28;20299;-74
2023/03/16 03:13:12;;;;;;;14.13;12.57;;;;;;;0.66;100.00;98406.88;5054203;28;20312;-74
2023/03/16 03:15:39;;;;;;;16.10;12.63;;;;;;;0.60;100.00;98411.88;5053866;28;20213;-74
2023/03/16 03:18:06;;;;;;;17.50;12.67;;;;;;;0.65;100.00;98415.69;5054089;28;20660;-74
2023/03/16 03:20:32;;;;;;;13.10;11.67;;;;;;;0.62;100.00;98412.56;5054517;28;20207;-74
2023/03/16 03:22:59;;;;;;;14.60;12.07;;;;;;;0.65;100.00;98425.31;5053836;28;20233;-74
2023/03/16 03:25:25;;;;;;;13.30;11.47;;;;;;;0.64;100.00;98423.69;5053587;28;20216;-74
2023/03/16 03:27:53;;;;;;;13.27;11.87;;;;;;;0.61;100.00;98413.50;5053666;28;20538;-74
2023/03/16 03:30:23;;;;;;;13.90;11.70;;;;;;;0.64;100.00;98408.81;5053449;28;20212;-74
2023/03/16 03:32:51;;;;;;;12.87;11.47;;;;;;;0.64;100.00;98397.53;5053600;28;20225;-74
2023/03/16 03:35:17;;;;;;;12.90;11.23;;;;;;;0.54;100.00;98391.53;5053589;28;20277;-74
2023/03/16 03:37:44;;;;;;;15.80;11.77;;;;;;;0.55;100.00;98399.25;5053750;28;20205;-74
2023/03/16 03:40:13;;;;;;;14.10;11.30;;;;;;;0.58;100.00;98396.31;5053401;28;20567;-74
2023/03/16 03:42:40;;;;;;;13.83;11.53;;;;;;;0.60;100.00;98398.78;5053534;28;20225;-74
2023/03/16 03:45:08;;;;;;;14.40;11.73;;;;;;;0.57;100.00;98397.28;5053349;28;20210;-74
2023/03/16 03:47:34;;;;;;;13.27;11.87;;;;;;;0.56;100.00;98398.28;5053294;28;20205;-74
2023/03/16 03:50:01;;;;;;;13.83;11.47;;;;;;;0.52;100.00;98394.31;5053239;28;20213;-74
2023/03/16 03:52:28;;;;;;;12.77;11.37;;;;;;;0.59;100.00;98397.16;5053235;28;20229;-74
2023/03/16 03:54:55;;;;;;;14.73;12.40;;;;;;;0.59;100.00;98387.53;5053907;28;20209;-74
2023/03/16 03:57:21;;;;;;;15.03;11.97;;;;;;;0.59;100.00;98395.38;5053463;28;20205;-74
2023/03/16 03:59:47;;;;;;;13.23;10.80;;;;;;;0.65;100.00;98386.09;5053330;28;20205;-74
2023/03/16 04:02:14;;;;;;;13.27;11.80;;;;;;;0.67;100.00;98382.34;5053145;28;20229;-74
2023/03/16 04:04:42;;;;;;;13.27;11.13;;;;;;;0.68;100.00;98377.94;5053466;28;20259;-74
2023/03/16 04:07:09;;;;;;;14.60;10.97;;;;;;;0.68;100.00;98375.34;5053164;28;20643;-74
2023/03/16 04:09:36;;;;;;;15.57;11.23;;;;;;;0.68;100.00;98380.56;5053316;28;20227;-74
2023/03/16 04:12:04;;;;;;;13.07;11.37;;;;;;;0.64;100.00;98398.38;5053283;28;20231;-74
2023/03/16 04:14:31;;;;;;;13.80;11.37;;;;;;;0.62;100.00;98383.78;5053133;28;20197;-74
2023/03/16 04:16:57;;;;;;;14.07;11.17;;;;;;;0.56;100.00;98389.59;5052736;28;20213;-74
2023/03/16 04:19:25;;;;;;;13.93;11.50;;;;;;;0.54;100.00;98388.94;5052876;28;20256;-74
2023/03/16 04:21:51;;;;;;;13.80;12.17;;;;;;;0.50;100.00;98384.97;5053036;28;20205;-74
2023/03/16 04:24:18;;;;;;;14.77;11.90;;;;;;;0.45;100.00;98387.19;5053056;28;20687;-74
2023/03/16 04:26:45;;;;;;;14.43;12.10;;;;;;;0.52;100.00;98377.78;5052643;28;20668;-74
2023/03/16 04:29:16;;;;;;;14.03;12.57;;;;;;;0.48;100.00;98382.50;5052844;28;20237;-74
2023/03/16 04:31:44;;;;;;;14.30;12.40;;;;;;;0.55;100.00;98372.25;5053018;28;20295;-74
2023/03/16 04:34:11;;;;;;;13.13;11.73;;;;;;;0.57;100.00;98367.69;5052392;28;20213;-74
2023/03/16 04:36:38;;;;;;;13.37;10.80;;;;;;;0.54;100.00;98371.44;5052441;28;20640;-74
2023/03/16 04:39:05;;;;;;;13.77;12.10;;;;;;;0.52;100.00;98362.91;5052542;28;20209;-74
2023/03/16 04:41:33;;;;;;;13.57;12.07;;;;;;;0.49;100.00;98362.41;5053935;28;20209;-74
2023/03/16 04:43:59;;;;;;;16.00;12.23;;;;;;;0.54;100.00;98357.53;5056623;28;20228;-74
2023/03/16 04:46:26;;;;;;;13.40;11.10;;;;;;;0.51;100.00;98363.06;5056502;28;20205;-74
2023/03/16 04:48:57;;;;;;;16.47;12.40;;;;;;;0.48;100.00;98366.78;5055795;28;20660;-74
2023/03/16 04:51:24;;;;;;;16.50;12.93;;;;;;;0.46;100.00;98362.69;5056256;28;20190;-73
2023/03/16 04:53:50;;;;;;;16.43;12.80;;;;;;;0.45;100.00;98366.28;5056345;28;20222;-73
2023/03/16 04:56:17;;;;;;;14.10;12.50;;;;;;;0.46;100.00;98360.06;5056227;28;20209;-74
2023/03/16 04:58:49;;;;;;;14.27;11.93;;;;;;;0.53;100.00;98368.97;5055913;28;20239;-74
2023/03/16 05:01:17;;;;;;;14.47;12.60;;;;;;;0.47;100.00;98359.09;5056078;28;20194;-73
2023/03/16 05:03:44;;;;;;;18.20;13.07;;;;;;;0.41;100.00;98368.38;5055624;28;20278;-74
2023/03/16 05:06:12;;;;;;;13.97;12.47;;;;;;;0.40;100.00;98363.28;5055890;28;20212;-74
2023/03/16 05:08:39;;;;;;;14.30;12.73;;;;;;;0.42;100.00;98364.78;5055691;28;20681;-74
2023/03/16 05:11:06;;;;;;;13.97;12.30;;;;;;;0.45;100.00;98367.09;5055638;28;20209;-74
2023/03/16 05:13:32;;;;;;;15.03;13.33;;;;;;;0.37;100.00;98363.56;5055895;28;20227;-74
2023/03/16 05:15:59;;;;;;;18.67;13.67;;;;;;;0.43;100.00;98362.97;5055599;28;20209;-74
2023/03/16 05:18:25;;;;;;;15.27;12.60;;;;;;;0.44;100.00;98365.44;5056119;28;20193;-74
2023/03/16 05:20:54;;;;;;;15.53;13.23;;;;;;;0.42;100.00;98361.34;5055875;28;20208;-74
2023/03/16 05:23:22;;;;;;;15.50;13.23;;;;;;;0.44;100.00;98362.03;5054915;28;20283;-74
2023/03/16 05:25:49;;;;;;;14.77;13.00;;;;;;;0.44;100.00;98368.06;5055215;28;20201;-74
2023/03/16 05:28:16;;;;;;;18.13;13.67;;;;;;;0.45;100.00;98364.47;5055385;28;20654;-74
2023/03/16 05:30:43;;;;;;;18.87;13.70;;;;;;;0.42;100.00;98367.41;5055715;28;20205;-74
2023/03/16 05:33:10;;;;;;;22.60;13.23;;;;;;;0.40;100.00;98358.06;5055309;28;20327;-74
2023/03/16 05:35:37;;;;;;;14.63;12.93;;;;;;;0.46;100.00;98362.69;5055295;28;20570;-74
2023/03/16 05:38:04;;;;;;;18.47;14.43;;;;;;;0.40;100.00;98358.88;5055160;28;20250;-74
2023/03/16 05:40:31;;;;;;;15.50;13.20;;;;;;;0.42;100.00;98366.56;5055421;28;20205;-74
2023/03/16 05:42:59;;;;;;;16.97;12.77;;;;;;;0.45;100.00;98366.28;5054454;28;20221;-74
2023/03/16 05:45:26;;;;;;;16.83;13.40;;;;;;;0.44;100.00;98352.38;5054912;28;20300;-74
2023/03/16 05:47:53;;;;;;;15.37;12.10;;;;;;;0.47;100.00;98352.09;5054758;28;20213;-74
2023/03/16 05:50:19;;;;;;;17.77;14.03;;;;;;;0.46;100.00;98342.59;5054879;28;20209;-74
2023/03/16 05:52:46;;;;;;;15.43;12.60;;;;;;;0.51;100.00;98348.19;5052979;28;20240;-74
2023/03/16 05:55:14;;;;;;;14.77;12.70;;;;;;;0.60;100.00;98355.16;5054624;28;20205;-74
2023/03/16 05:57:41;;;;;;;15.63;13.50;;;;;;;0.57;100.00;98346.75;5054403;28;20229;-74
2023/03/16 06:00:15;;;;;;;17.47;13.90;;;;;;;0.58;100.00;98349.22;5054726;28;20205;-74
2023/03/16 06:02:43;;;;;;;18.40;14.33;;;;;;;0.58;100.00;98343.19;5054422;28;20260;-74
2023/03/16 06:05:09;;;;;;;17.00;12.83;;;;;;;0.58;100.00;98340.59;5054560;28;20233;-74
2023/03/16 06:07:36;;;;;;;16.40;13.20;;;;;;;0.67;100.00;98344.91;5054581;28;20232;-74
2023/03/16 06:10:03;;;;;;;16.00;13.37;;;;;;;0.69;100.00;98343.78;5054655;28;20232;-74
2023/03/16 06:12:30;;;;;;;16.73;13.33;;;;;;;0.70;100.00;98348.03;5054009;28;20225;-74
2023/03/16 06:14:57;;;;;;;17.87;13.43;;;;;;;0.61;100.00;98341.09;5053787;28;20198;-75
2023/03/16 06:17:23;;;;;;;19.27;14.37;;;;;;;0.75;100.00;98344.97;5053668;28;20220;-74
2023/03/16 06:19:49;;;;;;;16.93;14.43;;;;;;;0.76;100.00;98344.81;5053930;28;20209;-74
2023/03/16 06:22:17;;;;;;;17.03;13.73;;;;;;;0.86;100.00;98344.75;5053803;28;20300;-75
2023/03/16 06:24:43;;;;;;;17.03;14.67;;;;;;;0.89;100.00;98344.44;5053599;28;20229;-74
2023/03/16 06:27:10;;;;;;;16.53;14.60;;;;;;;0.94;100.00;98348.22;5053764;28;20208;-74
2023/03/16 06:29:36;;;;;;;17.33;14.47;;;;;;;0.98;100.00;98344.34;5053708;28;20288;-75
2023/03/16 06:32:03;;;;;;;18.67;13.80;;;;;;;0.99;100.00;98345.19;5053539;28;20229;-75
2023/03/16 06:34:29;;;;;;;18.47;14.03;;;;;;;1.08;100.00;98347.69;5053049;28;20201;-74
2023/03/16 06:36:55;;;;;;;23.10;15.83;;;;;;;1.11;100.00;98359.66;5053789;28;20209;-75
2023/03/16 06:39:22;;;;;;;18.67;15.47;;;;;;;1.11;100.00;98354.41;5053753;28;20206;-74
2023/03/16 06:41:48;;;;;;;18.53;14.30;;;;;;;1.17;100.00;98351.22;5053377;28;20201;-74
2023/03/16 06:44:14;;;;;;;17.50;14.63;;;;;;;1.20;100.00;98350.88;5053595;28;20221;-74
2023/03/16 06:46:41;;;;;;;20.03;15.67;;;;;;;1.15;100.00;98353.13;5053472;28;20217;-74
2023/03/16 06:49:07;;;;;;;17.83;14.67;;;;;;;1.25;100.00;98351.22;5052876;28;20205;-74
2023/03/16 06:51:34;;;;;;;21.40;15.53;;;;;;;1.34;100.00;98356.38;5052795;28;20205;-74
2023/03/16 06:54:00;;;;;;;17.07;14.67;;;;;;;1.35;100.00;98347.53;5053548;28;20213;-74
2023/03/16 06:56:26;;;;;;;18.80;14.63;;;;;;;1.43;100.00;98359.88;5053273;28;20205;-74
2023/03/16 06:58:53;;;;;;;19.07;15.00;;;;;;;1.40;100.00;98350.53;5052460;28;20209;-74
2023/03/16 07:01:20;;;;;;;19.87;14.53;;;;;;;1.52;100.00;98357.16;5053609;28;20208;-74
2023/03/16 07:03:46;;;;;;;17.20;14.40;;;;;;;1.54;100.00;98349.94;5052688;28;20260;-74
2023/03/16 07:06:13;;;;;;;15.93;14.13;;;;;;;1.58;100.00;98356.53;5052944;28;20648;-74
2023/03/16 07:08:39;;;;;;;16.53;14.73;;;;;;;1.63;100.00;98356.06;5052445;28;20292;-74
2023/03/16 07:11:05;;;;;;;18.23;14.33;;;;;;;1.79;100.00;98359.59;5052935;28;20201;-75
2023/03/16 07:13:34;;;;;;;18.63;14.77;;;;;;;1.80;100.00;98358.59;5052930;28;20225;-74
2023/03/16 07:16:00;;;;;;;19.20;14.93;;;;;;;1.90;100.00;98363.75;5052474;28;20216;-74
2023/03/16 07:18:29;;;;;;;17.90;14.87;;;;;;;1.95;100.00;98362.31;5052958;28;20563;-74
2023/03/16 07:20:55;;;;;;;18.43;14.43;;;;;;;2.01;100.00;98366.06;5052834;28;20263;-74
2023/03/16 07:23:23;;;;;;;20.90;15.63;;;;;;;2.14;100.00;98362.03;5053506;28;20229;-74
2023/03/16 07:25:49;;;;;;;17.53;14.27;;;;;;;2.19;100.00;98366.78;5053001;28;20212;-73
2023/03/16 07:28:17;;;;;;;17.93;14.67;;;;;;;2.29;100.00;98368.31;5053240;28;20255;-74
2023/03/16 07:30:44;;;;;;;19.03;15.27;;;;;;;2.28;100.00;98368.47;5052851;28;20216;-74
2023/03/16 07:33:37;;;;;;;18.07;14.57;;;;;;;2.44;100.00;98373.75;5052741;28;20233;-73
2023/03/16 07:36:04;;;;;;;17.50;14.73;;;;;;;2.44;100.00;98373.75;5052094;28;20205;-73
2023/03/16 07:38:32;;;;;;;18.20;13.97;;;;;;;2.51;100.00;98374.75;5052889;28;20297;-73
2023/03/16 07:41:01;;;;;;;16.70;13.43;;;;;;;2.62;100.00;98362.13;5052933;28;20237;-73
2023/03/16 07:43:29;;;;;;;18.67;14.80;;;;;;;2.72;100.00;98362.84;5052101;28;20229;-73
2023/03/16 07:45:55;;;;;;;16.70;14.20;;;;;;;2.85;100.00;98367.59;5053068;28;20274;-73
2023/03/16 07:48:21;;;;;;;18.57;14.40;;;;;;;2.80;100.00;98364.66;5053064;28;20205;-73
2023/03/16 07:50:49;;;;;;;14.40;12.90;;;;;;;2.79;100.00;98363.81;5052462;28;20209;-73
2023/03/16 07:53:16;;;;;;;16.93;13.30;;;;;;;2.90;100.00;98360.06;5052629;28;20225;-73
2023/03/16 07:55:43;;;;;;;15.77;13.53;;;;;;;2.91;100.00;98370.41;5052870;28;20229;-74
2023/03/16 07:58:10;;;;;;;17.33;12.77;;;;;;;3.02;100.00;98364.81;5052998;28;20575;-73
2023/03/16 08:00:37;;;;;;;15.27;13.20;;;;;;;3.13;100.00;98368.91;5052657;28;20538;-74
2023/03/16 08:03:04;;;;;;;16.60;12.53;;;;;;;3.18;100.00;98370.06;5052402;28;20225;-74
2023/03/16 08:05:32;;;;;;;13.77;11.90;;;;;;;3.30;100.00;98367.94;5052555;28;20247;-74
2023/03/16 08:07:59;;;;;;;13.40;11.57;;;;;;;3.38;100.00;98370.53;5052781;28;20205;-74
2023/03/16 08:10:27;;;;;;;12.73;11.17;;;;;;;3.56;100.00;98369.34;5053214;28;20213;-74
2023/03/16 08:12:53;;;;;;;12.50;11.20;;;;;;;3.55;100.00;98362.47;5053038;28;20228;-73
2023/03/16 08:15:20;;;;;;;12.23;10.90;;;;;;;3.61;100.00;98367.03;5052520;28;20223;-74
2023/03/16 08:17:47;;;;;;;12.90;11.50;;;;;;;3.69;100.00;98371.47;5055367;28;20271;-73
2023/03/16 08:20:14;;;;;;;15.83;10.20;;;;;;;3.77;100.00;98374.06;5056831;28;20205;-74
2023/03/16 08:22:45;;;;;;;11.03;9.23;;;;;;;3.95;100.00;98359.72;5056076;28;20228;-74
2023/03/16 08:25:11;;;;;;;12.03;9.60;;;;;;;4.11;100.00;98370.16;5056446;28;20616;-74
2023/03/16 08:27:39;;;;;;;14.00;10.07;;;;;;;4.17;100.00;98364.25;5056188;28;20201;-74
2023/03/16 08:30:10;;;;;;;11.67;9.33;;;;;;;4.10;100.00;98365.91;5056752;28;20205;-74
2023/03/16 08:32:38;;;;;;;12.73;9.63;;;;;;;4.20;100.00;98357.81;5055837;28;20261;-74
2023/03/16 08:35:05;;;;;;;10.50;9.40;;;;;;;4.21;100.00;98362.09;5056387;28;20217;-74
2023/03/16 08:37:32;;;;;;;10.10;8.57;;;;;;;4.19;100.00;98361.41;5056544;28;20209;-74
2023/03/16 08:39:59;;;;;;;11.30;9.83;;;;;;;4.41;100.00;98360.66;5055966;28;20211;-74
2023/03/16 08:42:27;;;;;;;11.60;8.53;;;;;;;4.51;100.00;98358.63;5056118;28;20236;-74
2023/03/16 08:44:54;;;;;;;11.07;8.73;;;;;;;4.67;100.00;98353.25;5055870;28;20316;-74
2023/03/16 08:47:24;;;;;;;11.27;8.43;;;;;;;4.68;100.00;98347.00;5055718;28;20257;-74
2023/03/16 08:49:51;;;;;;;9.20;8.07;;;;;;;4.70;100.00;98345.81;5057004;28;20209;-74
2023/03/16 08:52:17;;;;;;;9.27;8.20;;;;;;;4.74;100.00;98339.22;5056415;28;20251;-74
2023/03/16 08:54:43;;;;;;;10.00;8.20;;;;;;;4.92;100.00;98344.19;5056193;28;20205;-74
2023/03/16 08:57:11;;;;;;;10.70;7.90;;;;;;;5.07;100.00;98350.34;5056198;28;20201;-74
2023/03/16 08:59:37;;;;;;;10.17;7.97;;;;;;;5.00;100.00;98341.50;5056289;28;20213;-74
2023/03/16 09:02:04;;;;;;;8.40;7.57;;;;;;;5.06;100.00;98340.81;5055816;28;20221;-74
2023/03/16 09:04:31;;;;;;;8.90;7.97;;;;;;;5.00;100.00;98346.75;5055547;28;20252;-73
2023/03/16 09:06:57;;;;;;;7.97;7.17;;;;;;;5.38;100.00;98341.31;5055926;28;20282;-74
2023/03/16 09:09:24;;;;;;;8.97;7.47;;;;;;;5.39;100.00;98347.41;5056052;28;20205;-74
2023/03/16 09:11:51;;;;;;;8.73;7.70;;;;;;;5.31;100.00;98340.41;5055852;28;20205;-74
2023/03/16 09:14:17;;;;;;;11.73;7.13;;;;;;;5.49;99.87;98340.06;5055376;28;20323;-74
2023/03/16 09:16:44;;;;;;;8.23;7.40;;;;;;;5.47;99.18;98336.81;5055263;28;20294;-73
2023/03/16 09:19:12;;;;;;;8.03;7.17;;;;;;;5.66;97.64;98342.34;5055974;28;20205;-74
2023/03/16 09:21:38;;;;;;;7.93;6.50;;;;;;;5.82;94.13;98341.38;5055566;28;20296;-74
2023/03/16 09:24:06;;;;;;;6.93;5.70;;;;;;;6.04;95.94;98336.03;5055526;28;20564;-74
2023/03/16 09:26:33;;;;;;;7.20;6.50;;;;;;;5.98;95.09;98331.44;5055426;28;20209;-73
2023/03/16 09:28:59;;;;;;;6.57;5.97;;;;;;;6.26;94.42;98321.06;5055415;28;20212;-74
2023/03/16 09:31:26;;;;;;;7.60;6.63;;;;;;;6.44;91.01;98313.53;5055366;28;20217;-73
2023/03/16 09:33:52;;;;;;;10.30;6.10;;;;;;;6.30;94.10;98317.03;5055169;28;20233;-74
2023/03/16 09:36:19;;;;;;;7.17;6.43;;;;;;;6.50;90.65;98323.34;5055404;28;20201;-73
2023/03/16 09:38:45;;;;;;;8.17;6.20;;;;;;;6.48;91.75;98328.00;5055264;28;20551;-73
2023/03/16 09:41:34;;;;;;;13.60;6.13;;;;;;;6.72;88.56;98317.09;5055629;28;20201;-73
2023/03/16 09:44:10;;;;;;;7.43;5.83;;;;;;;6.46;88.48;98307.06;5055059;28;20193;-73
2023/03/16 09:46:44;;;;;;;10.90;6.33;;;;;;;6.66;88.62;98309.91;5053909;28;20200;-73
2023/03/16 09:49:12;;;;;;;7.40;5.60;;;;;;;6.95;87.13;98317.72;5053656;28;20196;-73
2023/03/16 09:51:48;;;;;;;7.17;5.50;;;;;;;7.01;85.10;98301.91;5054974;28;20283;-73
2023/03/16 09:54:56;;;;;;;6.97;6.07;;;;;;;7.11;85.85;98297.09;5054792;28;20221;-73
2023/03/16 09:57:59;;;;;;;6.07;5.47;;;;;;;7.37;87.32;98299.16;5052622;28;20216;-73
2023/03/16 10:03:59;;;;;;;5.83;5.03;;;;;;;7.41;83.94;98297.75;5052555;28;20301;-73
2023/03/16 10:06:26;;;;;;;5.93;5.20;;;;;;;7.56;82.33;98288.69;5052818;28;20237;-74
2023/03/16 10:09:17;;;;;;;7.30;5.10;;;;;;;7.77;79.78;98295.72;5054879;28;20209;-73
2023/03/16 10:11:53;;;;;;;7.90;5.40;;;;;;;7.87;78.66;98293.56;5053984;28;20187;-73
2023/03/16 10:14:42;;;;;;;6.37;5.37;;;;;;;7.63;80.70;98283.44;5054181;28;20665;-74
2023/03/16 10:17:25;;;;;;;8.50;5.80;;;;;;;8.01;80.49;98289.97;5054358;28;20299;-74
2023/03/16 10:19:57;;;;;;;10.67;5.57;;;;;;;8.28;77.74;98307.63;5054532;28;20271;-73
2023/03/16 10:22:28;;;;;;;5.97;4.57;;;;;;;8.34;78.18;98301.53;5054996;28;20221;-74
2023/03/16 10:24:57;;;;;;;5.47;4.97;;;;;;;8.30;75.66;98308.25;5054408;28;20205;-74
2023/03/16 10:27:33;;;;;;;6.37;4.43;;;;;;;8.13;76.91;98301.63;5053641;28;20672;-73
2023/03/16 10:30:02;;;;;;;5.00;4.27;;;;;;;8.12;75.64;98289.41;5054194;28;20213;-73
2023/03/16 10:32:35;;;;;;;4.93;4.27;;;;;;;8.04;77.69;98276.31;5054139;28;20232;-73
2023/03/16 10:35:22;;;;;;;6.40;4.60;;;;;;;8.15;76.87;98273.13;5053873;28;20247;-73
2023/03/16 10:37:49;;;;;;;5.97;4.73;;;;;;;8.43;74.69;98273.84;5053851;28;20290;-73
2023/03/16 10:40:19;;;;;;;6.00;4.67;;;;;;;8.33;77.24;98276.88;5053106;28;20284;-73
2023/03/16 10:42:47;;;;;;;5.90;4.47;;;;;;;8.26;74.30;98276.03;5053488;28;20275;-73
2023/03/16 10:45:28;;;;;;;7.90;4.63;;;;;;;8.52;74.57;98281.44;5053351;28;20717;-73
2023/03/16 10:48:08;;;;;;;4.77;3.77;;;;;;;8.41;73.19;98270.59;5053728;28;20193;-73
2023/03/16 10:50:35;;;;;;;4.80;4.10;;;;;;;8.46;73.37;98278.75;5053940;28;20192;-73
2023/03/16 10:53:02;;;;;;;4.60;3.63;;;;;;;8.52;71.68;98267.34;5053600;28;20229;-73
2023/03/16 10:55:34;;;;;;;4.83;4.10;;;;;;;8.73;70.83;98257.38;5053707;28;20205;-74
2023/03/16 10:58:01;;;;;;;5.53;3.83;;;;;;;8.79;70.67;98251.28;5053573;28;20220;-73
2023/03/16 11:00:30;;;;;;;5.23;4.17;;;;;;;8.55;71.53;98251.06;5053335;28;20209;-73
2023/03/16 11:02:59;;;;;;;4.83;3.70;;;;;;;8.96;69.60;98251.72;5053728;28;20253;-73
2023/03/16 11:05:31;;;;;;;6.30;4.03;;;;;;;9.09;70.18;98241.91;5053435;28;20229;-73
2023/03/16 11:08:13;;;;;;;8.17;3.60;;;;;;;9.36;69.08;98248.81;5053295;28;20231;-73
2023/03/16 11:10:43;;;;;;;4.37;3.23;;;;;;;9.24;68.55;98244.34;5053919;28;20243;-73
2023/03/16 11:13:14;;;;;;;4.30;3.50;;;;;;;9.43;67.50;98244.34;5053462;28;20225;-73
2023/03/16 11:15:50;;;;;;;5.17;3.50;;;;;;;9.16;67.68;98258.66;5052876;28;20186;-73
2023/03/16 11:18:29;;;;;;;4.87;3.27;;;;;;;9.28;66.51;98250.88;5052757;28;20640;-73
2023/03/16 11:20:58;;;;;;;8.60;3.03;;;;;;;9.50;69.00;98255.72;5053047;28;20189;-74
2023/03/16 11:23:34;;;;;;;5.83;3.37;;;;;;;9.26;67.33;98245.78;5053281;28;20228;-73
2023/03/16 11:26:05;;;;;;;5.57;3.67;;;;;;;9.33;65.87;98246.56;5053076;28;20290;-73
2023/03/16 11:28:38;;;;;;;4.77;2.60;;;;;;;9.24;66.20;98241.69;5053046;28;20194;-74
2023/03/16 11:31:39;;;;;;;5.77;3.30;;;;;;;9.59;66.78;98238.56;5052991;28;20205;-73
2023/03/16 11:34:14;;;;;;;5.50;3.20;;;;;;;9.52;66.27;98240.44;5048125;28;20300;-73